sensor_id;sensor_type;location;lat;lon;timestamp;P1;durP1;ratioP1;P2;durP2;ratioP2
57651;SDS011;43480;53.116;6.734;2024-03-02T00:00:06;5.95;;;4.10;;
57651;SDS011;43480;53.116;6.734;2024-03-02T00:02:44;6.45;;;4.00;;
57651;SDS011;43480;53.116;6.734;2024-03-02T00:05:13;7.85;;;4.22;;
57651;SDS011;43480;53.116;6.734;2024-03-02T00:07:44;6.82;;;4.43;;
57651;SDS011;43480;53.116;6.734;2024-03-02T00:10:14;20.35;;;10.55;;
57651;SDS011;43480;53.116;6.734;2024-03-02T00:12:44;6.20;;;4.55;;
57651;SDS011;43480;53.116;6.734;2024-03-02T00:17:56;6.63;;;4.05;;
57651;SDS011;43480;53.116;6.734;2024-03-02T00:20:24;6.85;;;4.05;;
57651;SDS011;43480;53.116;6.734;2024-03-02T00:22:55;6.75;;;3.83;;
57651;SDS011;43480;53.116;6.734;2024-03-02T00:25:33;7.32;;;4.00;;
57651;SDS011;43480;53.116;6.734;2024-03-02T00:28:20;7.38;;;4.72;;
57651;SDS011;43480;53.116;6.734;2024-03-02T00:33:22;7.93;;;4.65;;
57651;SDS011;43480;53.116;6.734;2024-03-02T00:35:49;6.70;;;4.38;;
57651;SDS011;43480;53.116;6.734;2024-03-02T00:38:15;6.35;;;4.55;;
57651;SDS011;43480;53.116;6.734;2024-03-02T00:40:42;6.38;;;4.32;;
57651;SDS011;43480;53.116;6.734;2024-03-02T00:43:11;7.80;;;5.03;;
57651;SDS011;43480;53.116;6.734;2024-03-02T00:46:02;7.57;;;4.40;;
57651;SDS011;43480;53.116;6.734;2024-03-02T00:48:28;7.32;;;4.78;;
57651;SDS011;43480;53.116;6.734;2024-03-02T00:50:56;7.15;;;4.53;;
57651;SDS011;43480;53.116;6.734;2024-03-02T00:53:23;12.15;;;4.72;;
57651;SDS011;43480;53.116;6.734;2024-03-02T00:55:51;7.50;;;4.30;;
57651;SDS011;43480;53.116;6.734;2024-03-02T00:58:17;8.43;;;5.10;;
57651;SDS011;43480;53.116;6.734;2024-03-02T01:00:43;8.40;;;5.35;;
57651;SDS011;43480;53.116;6.734;2024-03-02T01:03:08;9.30;;;4.68;;
57651;SDS011;43480;53.116;6.734;2024-03-02T01:05:35;7.75;;;5.10;;
57651;SDS011;43480;53.116;6.734;2024-03-02T01:08:01;7.50;;;4.68;;
57651;SDS011;43480;53.116;6.734;2024-03-02T01:10:27;7.35;;;4.70;;
57651;SDS011;43480;53.116;6.734;2024-03-02T01:12:53;8.80;;;5.18;;
57651;SDS011;43480;53.116;6.734;2024-03-02T01:15:19;8.23;;;5.35;;
57651;SDS011;43480;53.116;6.734;2024-03-02T01:17:44;9.10;;;5.78;;
57651;SDS011;43480;53.116;6.734;2024-03-02T01:20:10;7.25;;;4.60;;
57651;SDS011;43480;53.116;6.734;2024-03-02T01:22:36;8.25;;;5.50;;
57651;SDS011;43480;53.116;6.734;2024-03-02T01:25:02;7.38;;;4.82;;
57651;SDS011;43480;53.116;6.734;2024-03-02T01:27:28;7.97;;;5.13;;
57651;SDS011;43480;53.116;6.734;2024-03-02T01:29:54;6.97;;;4.43;;
57651;SDS011;43480;53.116;6.734;2024-03-02T01:32:20;7.03;;;4.50;;
57651;SDS011;43480;53.116;6.734;2024-03-02T01:34:45;7.53;;;4.82;;
57651;SDS011;43480;53.116;6.734;2024-03-02T01:37:11;9.57;;;6.43;;
57651;SDS011;43480;53.116;6.734;2024-03-02T01:39:37;8.65;;;6.30;;
57651;SDS011;43480;53.116;6.734;2024-03-02T01:42:02;8.43;;;5.15;;
57651;SDS011;43480;53.116;6.734;2024-03-02T01:44:28;8.20;;;4.80;;
57651;SDS011;43480;53.116;6.734;2024-03-02T01:46:54;8.55;;;5.05;;
57651;SDS011;43480;53.116;6.734;2024-03-02T01:49:19;7.72;;;5.00;;
57651;SDS011;43480;53.116;6.734;2024-03-02T01:51:45;8.10;;;5.90;;
57651;SDS011;43480;53.116;6.734;2024-03-02T01:54:11;6.75;;;4.90;;
57651;SDS011;43480;53.116;6.734;2024-03-02T01:56:37;7.70;;;4.40;;
57651;SDS011;43480;53.116;6.734;2024-03-02T01:59:02;7.43;;;5.18;;
57651;SDS011;43480;53.116;6.734;2024-03-02T02:01:28;7.18;;;4.55;;
57651;SDS011;43480;53.116;6.734;2024-03-02T02:03:54;8.05;;;5.47;;
57651;SDS011;43480;53.116;6.734;2024-03-02T02:06:20;6.75;;;4.25;;
57651;SDS011;43480;53.116;6.734;2024-03-02T02:08:46;7.90;;;4.70;;
57651;SDS011;43480;53.116;6.734;2024-03-02T02:11:15;9.07;;;5.10;;
57651;SDS011;43480;53.116;6.734;2024-03-02T02:13:41;8.10;;;5.13;;
57651;SDS011;43480;53.116;6.734;2024-03-02T02:16:07;9.18;;;5.13;;
57651;SDS011;43480;53.116;6.734;2024-03-02T02:18:34;8.93;;;4.88;;
57651;SDS011;43480;53.116;6.734;2024-03-02T02:21:01;8.05;;;5.50;;
57651;SDS011;43480;53.116;6.734;2024-03-02T02:23:27;7.50;;;4.43;;
57651;SDS011;43480;53.116;6.734;2024-03-02T02:25:53;6.70;;;4.05;;
57651;SDS011;43480;53.116;6.734;2024-03-02T02:28:19;7.57;;;4.50;;
57651;SDS011;43480;53.116;6.734;2024-03-02T02:30:45;7.53;;;4.45;;
57651;SDS011;43480;53.116;6.734;2024-03-02T02:33:11;9.10;;;4.97;;
57651;SDS011;43480;53.116;6.734;2024-03-02T02:35:36;7.75;;;4.38;;
57651;SDS011;43480;53.116;6.734;2024-03-02T02:38:02;6.30;;;3.72;;
57651;SDS011;43480;53.116;6.734;2024-03-02T02:40:29;8.50;;;3.88;;
57651;SDS011;43480;53.116;6.734;2024-03-02T02:42:56;7.18;;;4.53;;
57651;SDS011;43480;53.116;6.734;2024-03-02T02:45:22;7.95;;;4.85;;
57651;SDS011;43480;53.116;6.734;2024-03-02T02:47:48;7.05;;;4.70;;
57651;SDS011;43480;53.116;6.734;2024-03-02T02:50:13;7.10;;;4.22;;
57651;SDS011;43480;53.116;6.734;2024-03-02T02:52:40;8.00;;;4.00;;
57651;SDS011;43480;53.116;6.734;2024-03-02T02:55:07;7.43;;;3.83;;
57651;SDS011;43480;53.116;6.734;2024-03-02T02:57:34;9.65;;;3.92;;
57651;SDS011;43480;53.116;6.734;2024-03-02T03:00:09;6.82;;;4.07;;
57651;SDS011;43480;53.116;6.734;2024-03-02T03:02:44;6.85;;;4.55;;
57651;SDS011;43480;53.116;6.734;2024-03-02T03:05:13;5.57;;;3.60;;
57651;SDS011;43480;53.116;6.734;2024-03-02T03:07:39;6.65;;;4.60;;
57651;SDS011;43480;53.116;6.734;2024-03-02T03:10:06;8.05;;;4.40;;
57651;SDS011;43480;53.116;6.734;2024-03-02T03:12:32;6.57;;;3.40;;
57651;SDS011;43480;53.116;6.734;2024-03-02T03:14:58;7.45;;;3.50;;
57651;SDS011;43480;53.116;6.734;2024-03-02T03:17:25;6.13;;;3.38;;
57651;SDS011;43480;53.116;6.734;2024-03-02T03:19:51;5.47;;;3.30;;
57651;SDS011;43480;53.116;6.734;2024-03-02T03:22:16;6.10;;;3.80;;
57651;SDS011;43480;53.116;6.734;2024-03-02T03:24:42;6.65;;;3.83;;
57651;SDS011;43480;53.116;6.734;2024-03-02T03:27:08;5.47;;;3.30;;
57651;SDS011;43480;53.116;6.734;2024-03-02T03:29:38;5.18;;;3.38;;
57651;SDS011;43480;53.116;6.734;2024-03-02T03:32:04;7.60;;;4.05;;
57651;SDS011;43480;53.116;6.734;2024-03-02T03:34:34;5.85;;;3.53;;
57651;SDS011;43480;53.116;6.734;2024-03-02T03:37:00;5.90;;;3.20;;
57651;SDS011;43480;53.116;6.734;2024-03-02T03:39:26;6.55;;;3.05;;
57651;SDS011;43480;53.116;6.734;2024-03-02T03:41:52;5.20;;;3.00;;
57651;SDS011;43480;53.116;6.734;2024-03-02T03:44:17;6.68;;;3.10;;
57651;SDS011;43480;53.116;6.734;2024-03-02T03:46:43;5.45;;;2.67;;
57651;SDS011;43480;53.116;6.734;2024-03-02T03:49:08;6.85;;;3.33;;
57651;SDS011;43480;53.116;6.734;2024-03-02T03:51:34;4.68;;;2.65;;
57651;SDS011;43480;53.116;6.734;2024-03-02T03:54:00;4.90;;;3.00;;
57651;SDS011;43480;53.116;6.734;2024-03-02T03:56:26;6.20;;;2.67;;
57651;SDS011;43480;53.116;6.734;2024-03-02T03:58:52;6.40;;;3.03;;
57651;SDS011;43480;53.116;6.734;2024-03-02T04:01:18;4.93;;;2.97;;
57651;SDS011;43480;53.116;6.734;2024-03-02T04:03:43;5.80;;;3.13;;
57651;SDS011;43480;53.116;6.734;2024-03-02T04:06:10;5.53;;;3.10;;
57651;SDS011;43480;53.116;6.734;2024-03-02T04:08:35;4.68;;;2.95;;
57651;SDS011;43480;53.116;6.734;2024-03-02T04:11:01;4.57;;;2.75;;
57651;SDS011;43480;53.116;6.734;2024-03-02T04:13:28;3.97;;;2.55;;
57651;SDS011;43480;53.116;6.734;2024-03-02T04:15:53;6.07;;;2.90;;
57651;SDS011;43480;53.116;6.734;2024-03-02T04:18:19;6.68;;;3.10;;
57651;SDS011;43480;53.116;6.734;2024-03-02T04:20:44;5.93;;;2.80;;
57651;SDS011;43480;53.116;6.734;2024-03-02T04:23:10;5.25;;;2.72;;
57651;SDS011;43480;53.116;6.734;2024-03-02T04:25:36;6.72;;;3.45;;
57651;SDS011;43480;53.116;6.734;2024-03-02T04:28:01;7.13;;;3.15;;
57651;SDS011;43480;53.116;6.734;2024-03-02T04:30:27;5.35;;;2.67;;
57651;SDS011;43480;53.116;6.734;2024-03-02T04:32:53;5.00;;;2.50;;
57651;SDS011;43480;53.116;6.734;2024-03-02T04:35:18;5.53;;;3.10;;
57651;SDS011;43480;53.116;6.734;2024-03-02T04:37:44;6.15;;;3.08;;
57651;SDS011;43480;53.116;6.734;2024-03-02T04:40:10;6.00;;;3.17;;
57651;SDS011;43480;53.116;6.734;2024-03-02T04:42:36;6.72;;;2.92;;
57651;SDS011;43480;53.116;6.734;2024-03-02T04:45:02;5.97;;;2.97;;
57651;SDS011;43480;53.116;6.734;2024-03-02T04:47:28;6.65;;;3.33;;
57651;SDS011;43480;53.116;6.734;2024-03-02T04:49:53;5.68;;;3.17;;
57651;SDS011;43480;53.116;6.734;2024-03-02T04:52:19;5.65;;;3.33;;
57651;SDS011;43480;53.116;6.734;2024-03-02T04:54:45;7.10;;;3.58;;
57651;SDS011;43480;53.116;6.734;2024-03-02T04:57:29;7.50;;;3.80;;
57651;SDS011;43480;53.116;6.734;2024-03-02T04:59:55;6.78;;;3.15;;
57651;SDS011;43480;53.116;6.734;2024-03-02T05:02:20;5.30;;;3.00;;
57651;SDS011;43480;53.116;6.734;2024-03-02T05:04:46;6.40;;;3.63;;
57651;SDS011;43480;53.116;6.734;2024-03-02T05:07:13;5.20;;;3.28;;
57651;SDS011;43480;53.116;6.734;2024-03-02T05:09:39;6.03;;;3.55;;
57651;SDS011;43480;53.116;6.734;2024-03-02T05:12:05;5.43;;;3.40;;
57651;SDS011;43480;53.116;6.734;2024-03-02T05:14:37;4.93;;;3.30;;
57651;SDS011;43480;53.116;6.734;2024-03-02T05:17:03;7.80;;;3.03;;
57651;SDS011;43480;53.116;6.734;2024-03-02T05:19:29;5.38;;;3.35;;
57651;SDS011;43480;53.116;6.734;2024-03-02T05:21:55;6.43;;;4.10;;
57651;SDS011;43480;53.116;6.734;2024-03-02T05:24:20;6.20;;;3.40;;
57651;SDS011;43480;53.116;6.734;2024-03-02T05:26:46;6.32;;;3.30;;
57651;SDS011;43480;53.116;6.734;2024-03-02T05:29:11;6.97;;;3.55;;
57651;SDS011;43480;53.116;6.734;2024-03-02T05:31:37;6.57;;;3.72;;
57651;SDS011;43480;53.116;6.734;2024-03-02T05:34:03;8.25;;;3.58;;
57651;SDS011;43480;53.116;6.734;2024-03-02T05:36:30;7.35;;;3.83;;
57651;SDS011;43480;53.116;6.734;2024-03-02T05:38:56;7.47;;;3.53;;
57651;SDS011;43480;53.116;6.734;2024-03-02T05:41:22;5.57;;;3.92;;
57651;SDS011;43480;53.116;6.734;2024-03-02T05:43:48;6.30;;;3.97;;
57651;SDS011;43480;53.116;6.734;2024-03-02T05:46:14;7.25;;;3.83;;
57651;SDS011;43480;53.116;6.734;2024-03-02T05:48:40;7.10;;;5.28;;
57651;SDS011;43480;53.116;6.734;2024-03-02T05:51:05;6.43;;;3.88;;
57651;SDS011;43480;53.116;6.734;2024-03-02T05:53:31;7.95;;;3.83;;
57651;SDS011;43480;53.116;6.734;2024-03-02T05:55:57;6.40;;;3.90;;
57651;SDS011;43480;53.116;6.734;2024-03-02T05:58:23;5.32;;;3.30;;
57651;SDS011;43480;53.116;6.734;2024-03-02T06:01:11;8.02;;;4.15;;
57651;SDS011;43480;53.116;6.734;2024-03-02T06:03:37;6.55;;;3.92;;
57651;SDS011;43480;53.116;6.734;2024-03-02T06:06:02;7.53;;;3.97;;
57651;SDS011;43480;53.116;6.734;2024-03-02T06:08:28;8.10;;;4.15;;
57651;SDS011;43480;53.116;6.734;2024-03-02T06:10:54;10.30;;;3.85;;
57651;SDS011;43480;53.116;6.734;2024-03-02T06:13:21;7.22;;;4.13;;
57651;SDS011;43480;53.116;6.734;2024-03-02T06:15:47;6.20;;;3.95;;
57651;SDS011;43480;53.116;6.734;2024-03-02T06:18:12;6.82;;;3.50;;
57651;SDS011;43480;53.116;6.734;2024-03-02T06:20:38;6.13;;;3.50;;
57651;SDS011;43480;53.116;6.734;2024-03-02T06:23:04;5.13;;;3.08;;
57651;SDS011;43480;53.116;6.734;2024-03-02T06:25:30;8.13;;;3.97;;
57651;SDS011;43480;53.116;6.734;2024-03-02T06:27:56;6.20;;;3.47;;
57651;SDS011;43480;53.116;6.734;2024-03-02T06:30:21;5.35;;;3.58;;
57651;SDS011;43480;53.116;6.734;2024-03-02T06:32:47;5.53;;;3.08;;
57651;SDS011;43480;53.116;6.734;2024-03-02T06:35:12;5.72;;;3.70;;
57651;SDS011;43480;53.116;6.734;2024-03-02T06:37:38;6.18;;;3.97;;
57651;SDS011;43480;53.116;6.734;2024-03-02T06:40:07;5.75;;;3.20;;
57651;SDS011;43480;53.116;6.734;2024-03-02T06:42:33;5.82;;;3.38;;
57651;SDS011;43480;53.116;6.734;2024-03-02T06:45:00;6.20;;;3.80;;
57651;SDS011;43480;53.116;6.734;2024-03-02T06:47:26;6.10;;;4.10;;
57651;SDS011;43480;53.116;6.734;2024-03-02T06:49:51;7.80;;;3.83;;
57651;SDS011;43480;53.116;6.734;2024-03-02T06:52:18;6.45;;;4.07;;
57651;SDS011;43480;53.116;6.734;2024-03-02T06:54:43;7.25;;;3.97;;
57651;SDS011;43480;53.116;6.734;2024-03-02T06:57:09;6.40;;;4.20;;
57651;SDS011;43480;53.116;6.734;2024-03-02T06:59:35;6.07;;;4.07;;
57651;SDS011;43480;53.116;6.734;2024-03-02T07:02:00;6.38;;;3.53;;
57651;SDS011;43480;53.116;6.734;2024-03-02T07:04:27;6.38;;;3.97;;
57651;SDS011;43480;53.116;6.734;2024-03-02T07:06:52;5.65;;;3.90;;
57651;SDS011;43480;53.116;6.734;2024-03-02T07:09:18;7.38;;;4.88;;
57651;SDS011;43480;53.116;6.734;2024-03-02T07:11:47;6.65;;;4.38;;
57651;SDS011;43480;53.116;6.734;2024-03-02T07:14:13;6.72;;;4.07;;
57651;SDS011;43480;53.116;6.734;2024-03-02T07:16:40;6.13;;;4.28;;
57651;SDS011;43480;53.116;6.734;2024-03-02T07:19:05;6.35;;;4.38;;
57651;SDS011;43480;53.116;6.734;2024-03-02T07:21:31;6.90;;;4.18;;
57651;SDS011;43480;53.116;6.734;2024-03-02T07:23:58;6.95;;;4.18;;
57651;SDS011;43480;53.116;6.734;2024-03-02T07:26:24;6.50;;;4.32;;
57651;SDS011;43480;53.116;6.734;2024-03-02T07:28:50;7.18;;;4.50;;
57651;SDS011;43480;53.116;6.734;2024-03-02T07:31:17;9.07;;;4.20;;
57651;SDS011;43480;53.116;6.734;2024-03-02T07:33:45;6.30;;;3.83;;
57651;SDS011;43480;53.116;6.734;2024-03-02T07:36:12;7.95;;;3.75;;
57651;SDS011;43480;53.116;6.734;2024-03-02T07:38:38;10.88;;;5.38;;
57651;SDS011;43480;53.116;6.734;2024-03-02T07:41:03;8.30;;;4.25;;
57651;SDS011;43480;53.116;6.734;2024-03-02T07:43:30;6.18;;;3.78;;
57651;SDS011;43480;53.116;6.734;2024-03-02T07:45:58;6.95;;;4.10;;
57651;SDS011;43480;53.116;6.734;2024-03-02T07:48:23;5.75;;;3.20;;
57651;SDS011;43480;53.116;6.734;2024-03-02T07:50:50;8.00;;;4.10;;
57651;SDS011;43480;53.116;6.734;2024-03-02T07:53:15;6.82;;;3.80;;
57651;SDS011;43480;53.116;6.734;2024-03-02T07:55:41;5.35;;;3.38;;
57651;SDS011;43480;53.116;6.734;2024-03-02T07:58:07;6.70;;;3.65;;
57651;SDS011;43480;53.116;6.734;2024-03-02T08:00:33;7.00;;;4.72;;
57651;SDS011;43480;53.116;6.734;2024-03-02T08:03:00;8.82;;;5.00;;
57651;SDS011;43480;53.116;6.734;2024-03-02T08:05:26;7.15;;;4.28;;
57651;SDS011;43480;53.116;6.734;2024-03-02T08:07:52;6.50;;;3.80;;
57651;SDS011;43480;53.116;6.734;2024-03-02T08:10:18;6.43;;;3.33;;
57651;SDS011;43480;53.116;6.734;2024-03-02T08:12:44;7.68;;;3.45;;
57651;SDS011;43480;53.116;6.734;2024-03-02T08:15:10;5.97;;;3.33;;
57651;SDS011;43480;53.116;6.734;2024-03-02T08:17:38;7.65;;;4.03;;
57651;SDS011;43480;53.116;6.734;2024-03-02T08:20:10;5.50;;;3.58;;
57651;SDS011;43480;53.116;6.734;2024-03-02T08:22:36;5.88;;;3.60;;
57651;SDS011;43480;53.116;6.734;2024-03-02T08:25:02;6.45;;;3.75;;
57651;SDS011;43480;53.116;6.734;2024-03-02T08:27:29;7.70;;;3.55;;
57651;SDS011;43480;53.116;6.734;2024-03-02T08:29:54;6.57;;;3.92;;
57651;SDS011;43480;53.116;6.734;2024-03-02T08:32:20;5.53;;;3.50;;
57651;SDS011;43480;53.116;6.734;2024-03-02T08:34:46;5.72;;;3.78;;
57651;SDS011;43480;53.116;6.734;2024-03-02T08:37:11;6.07;;;3.45;;
57651;SDS011;43480;53.116;6.734;2024-03-02T08:39:37;5.93;;;3.80;;
57651;SDS011;43480;53.116;6.734;2024-03-02T08:42:03;5.13;;;3.40;;
57651;SDS011;43480;53.116;6.734;2024-03-02T08:44:29;6.55;;;3.72;;
57651;SDS011;43480;53.116;6.734;2024-03-02T08:46:55;9.35;;;4.30;;
57651;SDS011;43480;53.116;6.734;2024-03-02T08:49:21;8.10;;;3.58;;
57651;SDS011;43480;53.116;6.734;2024-03-02T08:51:47;5.93;;;3.05;;
57651;SDS011;43480;53.116;6.734;2024-03-02T08:54:19;5.72;;;3.38;;
57651;SDS011;43480;53.116;6.734;2024-03-02T08:56:46;6.45;;;3.08;;
57651;SDS011;43480;53.116;6.734;2024-03-02T08:59:13;8.93;;;3.30;;
57651;SDS011;43480;53.116;6.734;2024-03-02T09:01:38;5.45;;;3.35;;
57651;SDS011;43480;53.116;6.734;2024-03-02T09:04:06;5.15;;;2.83;;
57651;SDS011;43480;53.116;6.734;2024-03-02T09:06:34;5.50;;;3.05;;
57651;SDS011;43480;53.116;6.734;2024-03-02T09:09:00;7.22;;;2.97;;
57651;SDS011;43480;53.116;6.734;2024-03-02T09:11:25;4.13;;;2.03;;
57651;SDS011;43480;53.116;6.734;2024-03-02T09:13:51;3.45;;;1.70;;
57651;SDS011;43480;53.116;6.734;2024-03-02T09:16:18;5.70;;;2.20;;
57651;SDS011;43480;53.116;6.734;2024-03-02T09:18:44;5.60;;;1.70;;
57651;SDS011;43480;53.116;6.734;2024-03-02T09:21:10;3.88;;;1.70;;
57651;SDS011;43480;53.116;6.734;2024-03-02T09:23:35;5.55;;;1.90;;
57651;SDS011;43480;53.116;6.734;2024-03-02T09:26:01;3.00;;;1.40;;
57651;SDS011;43480;53.116;6.734;2024-03-02T09:28:28;3.42;;;1.33;;
57651;SDS011;43480;53.116;6.734;2024-03-02T09:30:54;2.40;;;1.17;;
57651;SDS011;43480;53.116;6.734;2024-03-02T09:33:19;3.42;;;0.90;;
57651;SDS011;43480;53.116;6.734;2024-03-02T09:35:45;5.80;;;1.73;;
57651;SDS011;43480;53.116;6.734;2024-03-02T09:38:11;5.35;;;1.15;;
57651;SDS011;43480;53.116;6.734;2024-03-02T09:40:37;2.70;;;1.17;;
57651;SDS011;43480;53.116;6.734;2024-03-02T09:43:02;3.85;;;1.15;;
57651;SDS011;43480;53.116;6.734;2024-03-02T09:45:28;2.22;;;0.70;;
57651;SDS011;43480;53.116;6.734;2024-03-02T09:47:55;2.33;;;0.80;;
57651;SDS011;43480;53.116;6.734;2024-03-02T09:50:21;2.20;;;0.93;;
57651;SDS011;43480;53.116;6.734;2024-03-02T09:52:48;2.25;;;0.90;;
57651;SDS011;43480;53.116;6.734;2024-03-02T09:55:15;1.55;;;0.80;;
57651;SDS011;43480;53.116;6.734;2024-03-02T09:57:42;1.48;;;0.80;;
57651;SDS011;43480;53.116;6.734;2024-03-02T10:00:08;1.48;;;0.80;;
57651;SDS011;43480;53.116;6.734;2024-03-02T10:02:34;4.00;;;0.88;;
57651;SDS011;43480;53.116;6.734;2024-03-02T10:04:59;3.00;;;0.80;;
57651;SDS011;43480;53.116;6.734;2024-03-02T10:07:25;1.73;;;0.77;;
57651;SDS011;43480;53.116;6.734;2024-03-02T10:09:51;2.80;;;1.00;;
57651;SDS011;43480;53.116;6.734;2024-03-02T10:12:17;3.42;;;1.20;;
57651;SDS011;43480;53.116;6.734;2024-03-02T10:14:44;2.25;;;1.00;;
57651;SDS011;43480;53.116;6.734;2024-03-02T10:17:10;3.92;;;1.98;;
57651;SDS011;43480;53.116;6.734;2024-03-02T10:19:37;4.65;;;1.48;;
57651;SDS011;43480;53.116;6.734;2024-03-02T10:22:04;3.67;;;1.10;;
57651;SDS011;43480;53.116;6.734;2024-03-02T10:24:41;2.85;;;1.10;;
57651;SDS011;43480;53.116;6.734;2024-03-02T10:27:14;3.13;;;0.95;;
57651;SDS011;43480;53.116;6.734;2024-03-02T10:29:42;3.00;;;0.90;;
57651;SDS011;43480;53.116;6.734;2024-03-02T10:32:11;2.75;;;1.00;;
57651;SDS011;43480;53.116;6.734;2024-03-02T10:34:39;1.92;;;1.05;;
57651;SDS011;43480;53.116;6.734;2024-03-02T10:37:05;3.72;;;1.10;;
57651;SDS011;43480;53.116;6.734;2024-03-02T10:39:32;4.45;;;1.23;;
57651;SDS011;43480;53.116;6.734;2024-03-02T10:42:00;2.85;;;1.00;;
57651;SDS011;43480;53.116;6.734;2024-03-02T10:44:28;4.18;;;1.33;;
57651;SDS011;43480;53.116;6.734;2024-03-02T10:46:55;3.22;;;1.30;;
57651;SDS011;43480;53.116;6.734;2024-03-02T10:49:22;1.65;;;1.00;;
57651;SDS011;43480;53.116;6.734;2024-03-02T10:51:49;2.20;;;1.20;;
57651;SDS011;43480;53.116;6.734;2024-03-02T10:54:15;3.30;;;1.50;;
57651;SDS011;43480;53.116;6.734;2024-03-02T10:56:41;3.25;;;1.20;;
57651;SDS011;43480;53.116;6.734;2024-03-02T11:01:38;2.50;;;1.27;;
57651;SDS011;43480;53.116;6.734;2024-03-02T11:04:04;3.42;;;1.20;;
57651;SDS011;43480;53.116;6.734;2024-03-02T11:06:33;2.30;;;1.38;;
57651;SDS011;43480;53.116;6.734;2024-03-02T11:09:06;3.42;;;1.60;;
57651;SDS011;43480;53.116;6.734;2024-03-02T11:11:40;3.53;;;1.88;;
57651;SDS011;43480;53.116;6.734;2024-03-02T11:14:13;2.58;;;1.60;;
57651;SDS011;43480;53.116;6.734;2024-03-02T11:16:41;4.25;;;1.88;;
57651;SDS011;43480;53.116;6.734;2024-03-02T11:19:09;3.40;;;1.70;;
57651;SDS011;43480;53.116;6.734;2024-03-02T11:21:37;3.47;;;2.00;;
57651;SDS011;43480;53.116;6.734;2024-03-02T11:26:52;3.53;;;2.10;;
57651;SDS011;43480;53.116;6.734;2024-03-02T11:29:42;7.72;;;2.50;;
57651;SDS011;43480;53.116;6.734;2024-03-02T11:34:43;5.50;;;1.80;;
57651;SDS011;43480;53.116;6.734;2024-03-02T11:37:14;6.38;;;2.00;;
57651;SDS011;43480;53.116;6.734;2024-03-02T11:39:42;5.25;;;2.40;;
57651;SDS011;43480;53.116;6.734;2024-03-02T11:42:09;4.22;;;2.08;;
57651;SDS011;43480;53.116;6.734;2024-03-02T11:44:37;3.40;;;1.98;;
57651;SDS011;43480;53.116;6.734;2024-03-02T11:47:06;3.30;;;1.60;;
57651;SDS011;43480;53.116;6.734;2024-03-02T11:49:49;3.22;;;1.80;;
57651;SDS011;43480;53.116;6.734;2024-03-02T11:52:17;4.43;;;2.05;;
57651;SDS011;43480;53.116;6.734;2024-03-02T11:54:44;4.05;;;2.22;;
57651;SDS011;43480;53.116;6.734;2024-03-02T11:57:20;4.43;;;2.47;;
57651;SDS011;43480;53.116;6.734;2024-03-02T11:59:49;4.93;;;1.88;;
57651;SDS011;43480;53.116;6.734;2024-03-02T12:02:24;3.10;;;1.90;;
57651;SDS011;43480;53.116;6.734;2024-03-02T12:04:49;4.18;;;1.90;;
57651;SDS011;43480;53.116;6.734;2024-03-02T12:07:21;3.40;;;1.70;;
57651;SDS011;43480;53.116;6.734;2024-03-02T12:09:48;5.13;;;2.13;;
57651;SDS011;43480;53.116;6.734;2024-03-02T12:12:24;4.38;;;1.83;;
57651;SDS011;43480;53.116;6.734;2024-03-02T12:14:50;3.70;;;2.10;;
57651;SDS011;43480;53.116;6.734;2024-03-02T12:17:18;6.47;;;2.13;;
57651;SDS011;43480;53.116;6.734;2024-03-02T12:19:44;5.68;;;2.38;;
57651;SDS011;43480;53.116;6.734;2024-03-02T12:22:11;5.50;;;2.20;;
57651;SDS011;43480;53.116;6.734;2024-03-02T12:24:36;4.30;;;2.03;;
57651;SDS011;43480;53.116;6.734;2024-03-02T12:27:02;4.45;;;2.15;;
57651;SDS011;43480;53.116;6.734;2024-03-02T12:29:29;5.18;;;2.17;;
57651;SDS011;43480;53.116;6.734;2024-03-02T12:31:55;5.28;;;2.13;;
57651;SDS011;43480;53.116;6.734;2024-03-02T12:34:21;5.03;;;2.60;;
57651;SDS011;43480;53.116;6.734;2024-03-02T12:36:48;6.32;;;2.90;;
57651;SDS011;43480;53.116;6.734;2024-03-02T12:39:21;5.57;;;2.92;;
57651;SDS011;43480;53.116;6.734;2024-03-02T12:41:50;5.35;;;3.05;;
57651;SDS011;43480;53.116;6.734;2024-03-02T12:44:16;5.80;;;3.28;;
57651;SDS011;43480;53.116;6.734;2024-03-02T12:46:43;4.72;;;3.40;;
57651;SDS011;43480;53.116;6.734;2024-03-02T12:49:10;7.60;;;4.07;;
57651;SDS011;43480;53.116;6.734;2024-03-02T12:51:37;4.78;;;3.67;;
57651;SDS011;43480;53.116;6.734;2024-03-02T12:54:06;5.95;;;3.78;;
57651;SDS011;43480;53.116;6.734;2024-03-02T12:56:32;5.53;;;4.20;;
57651;SDS011;43480;53.116;6.734;2024-03-02T12:58:58;4.88;;;4.10;;
57651;SDS011;43480;53.116;6.734;2024-03-02T13:01:24;5.88;;;4.15;;
57651;SDS011;43480;53.116;6.734;2024-03-02T13:03:50;6.82;;;4.13;;
57651;SDS011;43480;53.116;6.734;2024-03-02T13:06:18;5.43;;;4.50;;
57651;SDS011;43480;53.116;6.734;2024-03-02T13:08:45;5.60;;;4.25;;
57651;SDS011;43480;53.116;6.734;2024-03-02T13:11:11;5.93;;;4.53;;
57651;SDS011;43480;53.116;6.734;2024-03-02T13:13:38;5.57;;;3.85;;
57651;SDS011;43480;53.116;6.734;2024-03-02T13:16:11;5.60;;;4.30;;
57651;SDS011;43480;53.116;6.734;2024-03-02T13:18:41;7.45;;;4.40;;
57651;SDS011;43480;53.116;6.734;2024-03-02T13:21:10;5.38;;;3.83;;
57651;SDS011;43480;53.116;6.734;2024-03-02T13:23:35;9.75;;;8.27;;
57651;SDS011;43480;53.116;6.734;2024-03-02T13:26:01;5.05;;;4.03;;
57651;SDS011;43480;53.116;6.734;2024-03-02T13:28:27;5.05;;;4.13;;
57651;SDS011;43480;53.116;6.734;2024-03-02T13:30:53;5.25;;;3.65;;
57651;SDS011;43480;53.116;6.734;2024-03-02T13:33:19;5.90;;;4.10;;
57651;SDS011;43480;53.116;6.734;2024-03-02T13:35:48;6.38;;;3.92;;
57651;SDS011;43480;53.116;6.734;2024-03-02T13:38:16;4.80;;;3.88;;
57651;SDS011;43480;53.116;6.734;2024-03-02T13:40:42;11.48;;;4.20;;
57651;SDS011;43480;53.116;6.734;2024-03-02T13:43:08;8.35;;;4.43;;
57651;SDS011;43480;53.116;6.734;2024-03-02T13:45:34;5.60;;;3.80;;
57651;SDS011;43480;53.116;6.734;2024-03-02T13:48:01;4.90;;;3.35;;
57651;SDS011;43480;53.116;6.734;2024-03-02T13:50:28;5.68;;;3.35;;
57651;SDS011;43480;53.116;6.734;2024-03-02T13:52:55;5.20;;;3.80;;
57651;SDS011;43480;53.116;6.734;2024-03-02T13:55:21;5.68;;;3.15;;
57651;SDS011;43480;53.116;6.734;2024-03-02T13:57:47;5.20;;;2.55;;
57651;SDS011;43480;53.116;6.734;2024-03-02T14:00:15;4.28;;;2.50;;
57651;SDS011;43480;53.116;6.734;2024-03-02T14:02:42;6.32;;;2.80;;
57651;SDS011;43480;53.116;6.734;2024-03-02T14:05:08;6.22;;;2.75;;
57651;SDS011;43480;53.116;6.734;2024-03-02T14:07:40;4.43;;;2.60;;
57651;SDS011;43480;53.116;6.734;2024-03-02T14:10:07;4.63;;;1.98;;
57651;SDS011;43480;53.116;6.734;2024-03-02T14:12:33;4.47;;;2.15;;
57651;SDS011;43480;53.116;6.734;2024-03-02T14:14:58;3.08;;;1.60;;
57651;SDS011;43480;53.116;6.734;2024-03-02T14:17:27;4.40;;;2.00;;
57651;SDS011;43480;53.116;6.734;2024-03-02T14:19:53;3.58;;;1.90;;
57651;SDS011;43480;53.116;6.734;2024-03-02T14:22:19;3.75;;;1.83;;
57651;SDS011;43480;53.116;6.734;2024-03-02T14:24:45;3.75;;;2.00;;
57651;SDS011;43480;53.116;6.734;2024-03-02T14:27:11;4.63;;;2.38;;
57651;SDS011;43480;53.116;6.734;2024-03-02T14:29:36;4.05;;;2.20;;
57651;SDS011;43480;53.116;6.734;2024-03-02T14:32:04;4.90;;;2.08;;
57651;SDS011;43480;53.116;6.734;2024-03-02T14:34:30;3.80;;;1.98;;
57651;SDS011;43480;53.116;6.734;2024-03-02T14:36:56;4.05;;;2.22;;
57651;SDS011;43480;53.116;6.734;2024-03-02T14:39:21;4.68;;;2.15;;
57651;SDS011;43480;53.116;6.734;2024-03-02T14:41:47;3.65;;;2.42;;
57651;SDS011;43480;53.116;6.734;2024-03-02T14:44:14;3.88;;;2.05;;
57651;SDS011;43480;53.116;6.734;2024-03-02T14:46:40;4.05;;;2.25;;
57651;SDS011;43480;53.116;6.734;2024-03-02T14:49:06;3.40;;;2.08;;
57651;SDS011;43480;53.116;6.734;2024-03-02T14:51:32;4.85;;;2.60;;
57651;SDS011;43480;53.116;6.734;2024-03-02T14:53:58;4.55;;;2.17;;
57651;SDS011;43480;53.116;6.734;2024-03-02T14:56:24;4.85;;;2.63;;
57651;SDS011;43480;53.116;6.734;2024-03-02T14:58:49;4.63;;;2.25;;